createdAt,value
2022-09-11T00:01:01.050Z,39.67
2022-09-11T00:03:28.432Z,32.42
2022-09-11T00:05:55.119Z,40.10
2022-09-11T00:08:22.088Z,49.08
2022-09-11T00:10:49.285Z,30.13
2022-09-11T00:13:21.326Z,31.02
2022-09-11T00:15:51.949Z,38.40
2022-09-11T00:18:24.024Z,48.83
2022-09-11T00:20:54.026Z,36.70
2022-09-11T00:23:22.951Z,38.50
2022-09-11T00:25:50.261Z,38.55
2022-09-11T00:28:19.795Z,43.45
2022-09-11T00:30:48.575Z,40.45
2022-09-11T00:33:16.207Z,49.85
2022-09-11T00:35:42.851Z,41.95
2022-09-11T00:38:13.108Z,46.08
2022-09-11T00:40:46.868Z,40.95
2022-09-11T00:43:15.371Z,34.55
2022-09-11T00:45:42.326Z,45.70
2022-09-11T00:48:10.506Z,29.25
2022-09-11T00:50:37.168Z,38.85
2022-09-11T00:53:08.146Z,45.33
2022-09-11T00:55:37.873Z,44.42
2022-09-11T00:58:14.716Z,59.08
2022-09-11T01:00:44.539Z,56.50
2022-09-11T01:03:11.552Z,61.78
2022-09-11T01:05:41.282Z,59.00
2022-09-11T01:08:08.549Z,55.17
2022-09-11T01:11:03.458Z,40.83
2022-09-11T01:13:41.849Z,61.72
2022-09-11T01:16:17.155Z,49.88
2022-09-11T01:19:06.922Z,60.85
2022-09-11T01:21:45.439Z,54.38
2022-09-11T01:24:49.514Z,51.70
2022-09-11T01:27:44.596Z,58.25
2022-09-11T01:30:13.825Z,53.45
2022-09-11T01:32:43.017Z,56.35
2022-09-11T01:35:12.740Z,57.88
2022-09-11T01:37:55.160Z,59.20
2022-09-11T01:40:28.251Z,64.10
2022-09-11T01:43:06.190Z,51.80
2022-09-11T01:45:40.581Z,88.95
2022-09-11T01:48:09.094Z,88.80
2022-09-11T01:50:39.844Z,72.03
2022-09-11T01:53:09.761Z,60.20
2022-09-11T01:55:51.225Z,75.38
2022-09-11T01:58:29.950Z,61.65
2022-09-11T02:01:20.914Z,62.80
2022-09-11T02:04:32.623Z,61.70
2022-09-11T02:07:07.639Z,50.20
2022-09-11T02:09:47.305Z,63.80
2022-09-11T02:12:17.764Z,52.08
2022-09-11T02:14:48.583Z,48.53
2022-09-11T02:17:46.398Z,58.30
2022-09-11T02:20:12.979Z,41.72
2022-09-11T02:22:40.458Z,49.97
2022-09-11T02:25:07.686Z,67.35
2022-09-11T02:27:34.969Z,55.22
2022-09-11T02:30:01.732Z,69.20
2022-09-11T02:32:30.459Z,68.03
2022-09-11T02:34:57.670Z,49.58
2022-09-11T02:37:35.288Z,105.57
2022-09-11T02:40:44.073Z,82.75
2022-09-11T02:43:42.606Z,67.13
2022-09-11T02:46:31.040Z,71.43
2022-09-11T02:49:07.906Z,76.95
2022-09-11T02:51:47.292Z,47.42
2022-09-11T02:54:24.818Z,89.50
2022-09-11T02:57:09.846Z,95.95
2022-09-11T02:59:47.696Z,354.52
2022-09-11T03:02:15.570Z,235.05
2022-09-11T03:04:42.109Z,155.32
2022-09-11T03:07:09.194Z,289.33
2022-09-11T03:09:35.897Z,261.00
2022-09-11T03:12:04.603Z,206.20
2022-09-11T03:14:31.262Z,522.58
2022-09-11T03:16:57.962Z,142.23
2022-09-11T03:19:24.515Z,144.77
2022-09-11T03:21:51.538Z,100.45
2022-09-11T03:24:18.286Z,118.38
2022-09-11T03:26:44.852Z,77.82
2022-09-11T03:29:11.681Z,107.85
2022-09-11T03:31:39.386Z,55.75
2022-09-11T03:34:06.472Z,117.40
2022-09-11T03:36:34.515Z,64.80
2022-09-11T03:39:02.036Z,178.30
2022-09-11T03:41:28.694Z,516.95
2022-09-11T03:43:55.243Z,284.60
2022-09-11T03:46:21.928Z,277.83
2022-09-11T03:48:48.470Z,344.20
2022-09-11T03:51:15.595Z,297.02
2022-09-11T03:53:43.179Z,126.65
2022-09-11T03:56:10.537Z,124.65
2022-09-11T03:58:37.164Z,395.73
2022-09-11T04:01:14.742Z,58.08
2022-09-11T04:03:42.333Z,251.63
2022-09-11T04:06:10.307Z,315.27
2022-09-11T04:08:39.192Z,40.63
2022-09-11T04:11:06.712Z,101.93
2022-09-11T04:13:35.778Z,157.52
2022-09-11T04:16:08.273Z,132.75
2022-09-11T04:18:37.191Z,141.27
2022-09-11T04:21:08.742Z,139.98
2022-09-11T04:23:35.629Z,119.78
2022-09-11T04:26:02.686Z,52.17
2022-09-11T04:28:31.589Z,101.65
2022-09-11T04:31:04.439Z,107.90
2022-09-11T04:33:31.113Z,83.50
2022-09-11T04:35:57.822Z,71.85
2022-09-11T04:38:24.740Z,87.50
2022-09-11T04:40:51.392Z,69.53
2022-09-11T04:43:18.006Z,103.03
2022-09-11T04:45:44.517Z,89.95
2022-09-11T04:48:11.050Z,47.33
2022-09-11T04:50:37.570Z,52.25
2022-09-11T04:53:04.210Z,49.20
2022-09-11T04:55:30.738Z,61.53
2022-09-11T04:57:57.229Z,81.65
2022-09-11T05:00:25.053Z,69.50
2022-09-11T05:02:54.605Z,48.70
2022-09-11T05:05:21.192Z,59.55
2022-09-11T05:07:50.611Z,56.67
2022-09-11T05:10:17.174Z,50.10
2022-09-11T05:12:43.661Z,62.13
2022-09-11T05:15:10.919Z,39.35
2022-09-11T05:17:38.086Z,50.03
2022-09-11T05:20:08.630Z,65.53
2022-09-11T05:22:37.784Z,72.45
2022-09-11T05:25:04.598Z,70.20
2022-09-11T05:27:31.096Z,74.05
2022-09-11T05:29:57.633Z,75.10
2022-09-11T05:32:24.219Z,86.88
2022-09-11T05:34:50.755Z,62.13
2022-09-11T05:37:17.317Z,67.40
2022-09-11T05:39:43.844Z,65.25
2022-09-11T05:42:10.386Z,56.85
2022-09-11T05:44:37.452Z,53.78
2022-09-11T05:47:04.822Z,59.88
2022-09-11T05:49:31.393Z,46.60
2022-09-11T05:51:58.012Z,60.60
2022-09-11T05:54:25.659Z,66.75
2022-09-11T05:56:52.647Z,67.25
2022-09-11T05:59:20.611Z,59.97
2022-09-11T06:01:47.732Z,91.93
2022-09-11T06:04:14.511Z,154.60
2022-09-11T06:06:41.270Z,122.65
2022-09-11T06:09:07.968Z,132.95
2022-09-11T06:11:34.680Z,91.43
2022-09-11T06:14:01.367Z,60.22
2022-09-11T06:16:29.326Z,47.42
2022-09-11T06:18:55.868Z,46.85
2022-09-11T06:21:24.317Z,42.38
2022-09-11T06:23:52.759Z,40.40
2022-09-11T06:26:22.582Z,37.45
2022-09-11T06:28:50.867Z,34.42
2022-09-11T06:31:23.249Z,31.75
2022-09-11T06:33:51.049Z,36.50
2022-09-11T06:36:31.657Z,32.28
2022-09-11T06:38:58.696Z,32.35
2022-09-11T06:41:26.802Z,33.05
2022-09-11T06:43:53.966Z,33.42
2022-09-11T06:46:23.035Z,33.45
2022-09-11T06:48:51.309Z,33.05
2022-09-11T06:51:19.838Z,40.35
2022-09-11T06:53:47.620Z,42.60
2022-09-11T06:56:16.560Z,34.42
2022-09-11T06:58:45.303Z,42.22
2022-09-11T07:01:14.444Z,36.63
2022-09-11T07:03:45.583Z,36.17
2022-09-11T07:06:17.126Z,38.67
2022-09-11T07:08:44.028Z,38.70
2022-09-11T07:11:13.869Z,30.50
2022-09-11T07:13:41.112Z,35.85
2022-09-11T07:16:09.832Z,30.00
2022-09-11T07:18:42.138Z,28.00
2022-09-11T07:21:11.699Z,31.15
2022-09-11T07:23:39.475Z,33.55
2022-09-11T07:26:08.873Z,29.00
2022-09-11T07:28:37.757Z,28.10
2022-09-11T07:31:06.217Z,24.50
2022-09-11T07:33:32.874Z,19.40
2022-09-11T07:35:59.452Z,20.48
2022-09-11T07:38:26.086Z,26.50
2022-09-11T07:40:56.624Z,20.60
2022-09-11T07:43:23.163Z,18.90
2022-09-11T07:45:53.258Z,15.77
2022-09-11T07:48:19.781Z,23.67
2022-09-11T07:51:04.489Z,19.63
2022-09-11T07:53:34.624Z,19.58
2022-09-11T07:56:03.536Z,15.85
2022-09-11T07:58:38.193Z,10.30
2022-09-11T08:01:10.625Z,15.00
2022-09-11T08:03:37.599Z,10.38
2022-09-11T08:06:08.094Z,11.80
2022-09-11T08:08:35.486Z,7.78
2022-09-11T08:11:10.934Z,8.05
2022-09-11T08:13:37.519Z,7.53
2022-09-11T08:16:04.585Z,9.73
2022-09-11T08:18:31.762Z,13.43
2022-09-11T08:21:12.884Z,7.35
2022-09-11T08:23:43.486Z,9.40
2022-09-11T08:26:16.540Z,12.13
2022-09-11T08:28:45.174Z,9.65
2022-09-11T08:31:13.281Z,11.30
2022-09-11T08:33:40.459Z,10.43
2022-09-11T08:36:09.824Z,10.95
2022-09-11T08:38:37.874Z,10.60
2022-09-11T08:41:32.368Z,9.52
2022-09-11T08:44:16.570Z,9.30
2022-09-11T08:46:48.094Z,9.02
2022-09-11T08:49:38.179Z,12.18
2022-09-11T08:52:08.818Z,11.07
2022-09-11T08:54:40.361Z,8.75
2022-09-11T08:57:13.542Z,8.93
2022-09-11T08:59:49.217Z,8.25
2022-09-11T09:02:54.808Z,8.02
2022-09-11T09:05:46.101Z,5.97
2022-09-11T09:08:37.255Z,6.32
2022-09-11T09:11:20.487Z,5.93
2022-09-11T09:14:25.722Z,5.22
2022-09-11T09:17:19.751Z,5.25
2022-09-11T09:19:52.651Z,6.80
2022-09-11T09:22:27.848Z,5.68
2022-09-11T09:27:46.783Z,7.03
2022-09-11T09:30:19.485Z,5.97
2022-09-11T09:32:53.168Z,5.50
2022-09-11T09:35:25.193Z,7.95
2022-09-11T09:37:51.703Z,5.88
2022-09-11T09:40:19.070Z,6.13
2022-09-11T09:42:54.833Z,7.05
2022-09-11T09:45:42.442Z,5.47
2022-09-11T09:48:11.254Z,7.97
2022-09-11T09:50:40.614Z,5.95
2022-09-11T09:53:36.361Z,5.40
2022-09-11T09:56:05.476Z,4.53
2022-09-11T09:58:50.162Z,5.57
2022-09-11T10:01:44.754Z,5.55
2022-09-11T10:04:17.536Z,4.13
2022-09-11T10:06:49.544Z,3.90
2022-09-11T10:09:25.939Z,4.30
2022-09-11T10:12:02.718Z,6.88
2022-09-11T10:14:53.654Z,4.57
2022-09-11T10:17:31.420Z,5.70
2022-09-11T10:20:23.084Z,4.95
2022-09-11T10:22:51.434Z,5.10
2022-09-11T10:25:26.925Z,4.60
2022-09-11T10:28:03.554Z,4.82
2022-09-11T10:30:39.218Z,4.35
2022-09-11T10:33:30.710Z,5.18
2022-09-11T10:35:59.889Z,4.82
2022-09-11T10:38:47.849Z,4.35
2022-09-11T10:41:14.675Z,5.28
2022-09-11T10:44:04.195Z,5.47
2022-09-11T10:46:41.249Z,5.75
2022-09-11T10:49:25.802Z,4.55
2022-09-11T10:52:02.678Z,4.35
2022-09-11T10:54:46.958Z,4.28
2022-09-11T10:57:42.906Z,4.22
2022-09-11T11:00:12.345Z,4.90
2022-09-11T11:02:41.108Z,6.03
2022-09-11T11:05:13.895Z,5.10
2022-09-11T11:07:53.262Z,5.35
2022-09-11T11:10:51.001Z,5.10
2022-09-11T11:13:47.829Z,5.57
2022-09-11T11:16:33.737Z,5.07
2022-09-11T11:19:00.805Z,5.68
2022-09-11T11:21:27.318Z,5.63
2022-09-11T11:24:23.270Z,5.28
2022-09-11T11:27:02.454Z,7.38
2022-09-11T11:29:47.545Z,5.10
2022-09-11T11:32:35.362Z,4.93
2022-09-11T11:35:35.908Z,5.78
2022-09-11T11:38:11.436Z,4.50
2022-09-11T11:40:46.297Z,4.18
2022-09-11T11:43:21.207Z,3.63
2022-09-11T11:46:18.372Z,4.00
2022-09-11T11:48:53.970Z,3.50
2022-09-11T11:51:28.107Z,4.30
2022-09-11T11:54:05.724Z,3.05
2022-09-11T11:57:13.425Z,3.35
2022-09-11T11:59:58.008Z,3.08
2022-09-11T12:03:07.935Z,2.85
2022-09-11T12:05:34.956Z,3.33
2022-09-11T12:08:01.962Z,2.95
2022-09-11T12:10:38.944Z,3.28
2022-09-11T12:13:18.363Z,3.63
2022-09-11T12:16:02.770Z,3.85
2022-09-11T12:18:29.536Z,4.03
2022-09-11T12:21:23.971Z,3.30
2022-09-11T12:23:50.460Z,3.42
2022-09-11T12:26:35.265Z,3.33
2022-09-11T12:29:14.609Z,4.22
2022-09-11T12:32:02.070Z,4.05
2022-09-11T12:34:43.820Z,2.97
2022-09-11T12:37:24.482Z,3.08
2022-09-11T12:39:55.053Z,2.70
2022-09-11T12:42:23.184Z,3.40
2022-09-11T12:44:49.693Z,3.08
2022-09-11T12:47:32.774Z,3.45
2022-09-11T12:50:16.449Z,2.88
2022-09-11T12:52:45.808Z,2.55
2022-09-11T12:55:40.907Z,2.75
2022-09-11T12:58:22.407Z,2.28
2022-09-11T13:01:00.179Z,3.22
2022-09-11T13:03:28.244Z,2.50
2022-09-11T13:06:00.059Z,2.10
2022-09-11T13:08:30.090Z,3.53
2022-09-11T13:11:35.108Z,3.63
2022-09-11T13:14:02.290Z,2.40
2022-09-11T13:16:34.925Z,2.63
2022-09-11T13:19:07.542Z,2.03
2022-09-11T13:21:38.025Z,2.00
2022-09-11T13:24:22.282Z,1.90
2022-09-11T13:26:55.303Z,2.08
2022-09-11T13:29:29.210Z,2.67
2022-09-11T13:31:58.414Z,2.55
2022-09-11T13:34:28.094Z,2.15
2022-09-11T13:36:57.109Z,2.55
2022-09-11T13:39:26.752Z,4.57
2022-09-11T13:42:02.726Z,2.00
2022-09-11T13:44:47.304Z,2.10
2022-09-11T13:47:21.345Z,1.73
2022-09-11T13:49:51.238Z,2.13
2022-09-11T13:52:22.023Z,1.70
2022-09-11T13:54:51.607Z,1.95
2022-09-11T13:57:21.100Z,1.67
2022-09-11T13:59:54.966Z,1.65
2022-09-11T14:02:47.126Z,2.28
2022-09-11T14:05:26.281Z,1.70
2022-09-11T14:07:58.067Z,3.28
2022-09-11T14:10:37.677Z,3.17
2022-09-11T14:13:29.213Z,2.45
2022-09-11T14:16:01.185Z,1.58
2022-09-11T14:18:33.438Z,1.80
2022-09-11T14:21:04.128Z,1.98
2022-09-11T14:23:31.410Z,1.95
2022-09-11T14:26:22.786Z,1.58
2022-09-11T14:28:55.662Z,1.70
2022-09-11T14:31:41.384Z,1.35
2022-09-11T14:34:11.510Z,1.40
2022-09-11T14:36:41.846Z,2.60
2022-09-11T14:39:23.476Z,1.30
2022-09-11T14:41:50.402Z,1.60
2022-09-11T14:44:17.533Z,1.55
2022-09-11T14:46:44.282Z,1.58
2022-09-11T14:49:12.813Z,1.63
2022-09-11T14:51:40.997Z,1.60
2022-09-11T14:54:14.771Z,2.58
2022-09-11T14:56:42.238Z,1.58
2022-09-11T14:59:08.822Z,1.48
2022-09-11T15:01:36.817Z,2.88
2022-09-11T15:04:03.933Z,1.80
2022-09-11T15:06:31.148Z,1.70
2022-09-11T15:08:58.418Z,1.70
2022-09-11T15:11:25.522Z,2.15
2022-09-11T15:14:14.315Z,2.15
2022-09-11T15:16:38.638Z,3.08
2022-09-11T15:19:05.207Z,1.90
2022-09-11T15:21:35.398Z,2.00
2022-09-11T15:24:05.374Z,1.95
2022-09-11T15:26:35.126Z,2.53
2022-09-11T15:29:01.631Z,1.60
2022-09-11T15:31:29.830Z,2.30
2022-09-11T15:33:57.157Z,2.35
2022-09-11T15:36:24.476Z,2.17
2022-09-11T15:38:54.922Z,2.17
2022-09-11T15:41:22.448Z,2.03
2022-09-11T15:43:50.538Z,2.60
2022-09-11T15:46:19.425Z,2.70
2022-09-11T15:48:46.433Z,2.03
2022-09-11T15:51:18.617Z,3.25
2022-09-11T15:53:45.641Z,2.38
2022-09-11T15:56:15.958Z,2.63
2022-09-11T15:58:45.328Z,2.63
2022-09-11T16:01:23.826Z,2.67
2022-09-11T16:03:55.027Z,3.22
2022-09-11T16:06:23.270Z,3.00
2022-09-11T16:08:49.806Z,3.97
2022-09-11T16:11:16.712Z,4.00
2022-09-11T16:13:47.530Z,4.38
2022-09-11T16:16:14.412Z,4.05
2022-09-11T16:18:42.542Z,4.00
2022-09-11T16:21:11.497Z,6.30
2022-09-11T16:23:39.216Z,4.20
2022-09-11T16:26:08.440Z,4.35
2022-09-11T16:28:36.893Z,5.53
2022-09-11T16:31:04.768Z,4.00
2022-09-11T16:33:33.149Z,5.13
2022-09-11T16:36:16.941Z,4.10
2022-09-11T16:38:44.315Z,4.32
2022-09-11T16:41:14.133Z,5.68
2022-09-11T16:43:42.937Z,4.45
2022-09-11T16:46:09.541Z,4.10
2022-09-11T16:48:39.208Z,4.93
2022-09-11T16:51:06.828Z,4.95
2022-09-11T16:53:35.665Z,4.80
2022-09-11T16:56:08.253Z,4.35
2022-09-11T16:58:35.230Z,3.60
2022-09-11T17:01:06.664Z,4.03
2022-09-11T17:03:36.172Z,3.92
2022-09-11T17:06:06.786Z,3.67
2022-09-11T17:08:33.973Z,3.00
2022-09-11T17:11:02.336Z,3.78
2022-09-11T17:13:29.181Z,3.92
2022-09-11T17:16:06.070Z,3.40
2022-09-11T17:18:33.250Z,3.22
2022-09-11T17:21:05.066Z,3.40
2022-09-11T17:23:33.109Z,3.15
2022-09-11T17:26:00.120Z,4.72
2022-09-11T17:28:26.777Z,3.33
2022-09-11T17:30:53.402Z,2.80
2022-09-11T17:33:19.876Z,3.28
2022-09-11T17:35:47.314Z,2.83
2022-09-11T17:38:13.810Z,4.07
2022-09-11T17:40:41.502Z,3.78
2022-09-11T17:43:08.076Z,3.78
2022-09-11T17:45:34.667Z,3.75
2022-09-11T17:48:01.657Z,3.63
2022-09-11T17:50:28.241Z,7.15
2022-09-11T17:52:54.877Z,5.82
2022-09-11T17:55:21.623Z,5.65
2022-09-11T17:57:52.792Z,3.97
2022-09-11T18:00:20.160Z,4.97
2022-09-11T18:02:49.551Z,5.00
2022-09-11T18:05:16.762Z,4.95
2022-09-11T18:07:43.246Z,4.25
2022-09-11T18:10:10.082Z,5.20
2022-09-11T18:12:36.606Z,4.05
2022-09-11T18:15:03.864Z,4.38
2022-09-11T18:17:30.436Z,4.25
2022-09-11T18:19:57.001Z,5.75
2022-09-11T18:22:23.582Z,5.38
2022-09-11T18:24:53.155Z,6.18
2022-09-11T18:27:19.961Z,6.50
2022-09-11T18:29:46.863Z,6.30
2022-09-11T18:32:13.456Z,5.35
2022-09-11T18:34:39.981Z,8.05
2022-09-11T18:37:07.689Z,6.85
2022-09-11T18:39:34.405Z,6.95
2022-09-11T18:42:01.489Z,5.93
2022-09-11T18:44:28.080Z,6.05
2022-09-11T18:46:55.528Z,5.68
2022-09-11T18:49:22.301Z,4.47
2022-09-11T18:51:49.024Z,5.22
2022-09-11T18:54:19.394Z,5.82
2022-09-11T18:56:45.914Z,6.28
2022-09-11T18:59:13.138Z,7.22
2022-09-11T19:01:40.771Z,8.63
2022-09-11T19:04:10.145Z,6.15
2022-09-11T19:06:40.021Z,8.07
2022-09-11T19:09:10.691Z,7.05
2022-09-11T19:11:37.435Z,8.82
2022-09-11T19:14:09.349Z,8.48
2022-09-11T19:16:36.946Z,9.13
2022-09-11T19:20:00.409Z,8.75
2022-09-11T19:22:29.030Z,7.07
2022-09-11T19:24:55.579Z,43.10
2022-09-11T19:27:22.093Z,12.73
2022-09-11T19:29:49.983Z,8.73
2022-09-11T19:32:17.720Z,7.53
2022-09-11T19:34:47.489Z,8.80
2022-09-11T19:37:15.193Z,10.10
2022-09-11T19:39:42.032Z,9.65
2022-09-11T19:42:09.301Z,8.18
2022-09-11T19:44:36.360Z,8.30
2022-09-11T19:47:03.611Z,7.60
2022-09-11T19:49:30.183Z,9.88
2022-09-11T19:51:58.202Z,8.95
2022-09-11T19:54:24.850Z,9.38
2022-09-11T19:56:51.748Z,8.65
2022-09-11T19:59:18.899Z,26.90
2022-09-11T20:01:45.733Z,10.13
2022-09-11T20:04:13.586Z,7.93
2022-09-11T20:06:40.164Z,10.82
2022-09-11T20:09:30.007Z,7.70
2022-09-11T20:11:54.061Z,9.20
2022-09-11T20:14:20.646Z,8.68
2022-09-11T20:16:47.190Z,9.38
2022-09-11T20:19:14.953Z,9.68
2022-09-11T20:21:41.880Z,9.30
2022-09-11T20:24:09.232Z,8.88
2022-09-11T20:26:35.754Z,8.05
2022-09-11T20:29:07.425Z,9.15
2022-09-11T20:31:46.027Z,9.95
2022-09-11T20:34:14.834Z,8.27
2022-09-11T20:36:41.345Z,9.13
2022-09-11T20:39:07.881Z,7.68
2022-09-11T20:41:35.871Z,8.05
2022-09-11T20:44:04.178Z,8.80
2022-09-11T20:46:30.797Z,7.38
2022-09-11T20:48:57.503Z,7.43
2022-09-11T20:51:24.493Z,7.45
2022-09-11T20:53:51.465Z,9.98
2022-09-11T20:56:20.552Z,8.95
2022-09-11T20:58:47.479Z,8.13
2022-09-11T21:01:17.525Z,8.05
2022-09-11T21:03:46.643Z,7.05
2022-09-11T21:06:13.210Z,9.20
2022-09-11T21:08:41.133Z,10.32
2022-09-11T21:11:08.635Z,11.10
2022-09-11T21:13:37.678Z,10.15
2022-09-11T21:16:12.099Z,9.57
2022-09-11T21:18:40.057Z,9.30
2022-09-11T21:21:07.332Z,11.85
2022-09-11T21:23:34.136Z,11.07
2022-09-11T21:26:00.720Z,9.85
2022-09-11T21:28:27.537Z,9.20
2022-09-11T21:30:54.154Z,9.93
2022-09-11T21:33:20.753Z,10.55
2022-09-11T21:35:54.225Z,11.30
2022-09-11T21:38:24.465Z,11.18
2022-09-11T21:40:51.937Z,9.98
2022-09-11T21:43:18.726Z,10.20
2022-09-11T21:45:45.650Z,7.80
2022-09-11T21:48:12.538Z,7.85
2022-09-11T21:50:40.139Z,8.60
2022-09-11T21:53:07.230Z,8.15
2022-09-11T21:55:44.902Z,8.18
2022-09-11T21:58:18.396Z,9.18
2022-09-11T22:00:49.991Z,14.95
2022-09-11T22:03:18.541Z,12.95
2022-09-11T22:05:48.683Z,11.35
2022-09-11T22:08:17.388Z,11.00
2022-09-11T22:10:46.647Z,8.95
2022-09-11T22:13:13.602Z,11.73
2022-09-11T22:15:48.781Z,8.43
2022-09-11T22:18:17.294Z,11.60
2022-09-11T22:20:45.511Z,13.00
2022-09-11T22:23:16.844Z,12.80
2022-09-11T22:25:45.137Z,10.30
2022-09-11T22:28:12.620Z,11.60
2022-09-11T22:30:43.905Z,12.80
2022-09-11T22:33:10.975Z,11.60
2022-09-11T22:35:37.493Z,12.85
2022-09-11T22:38:04.003Z,16.10
2022-09-11T22:40:30.811Z,13.05
2022-09-11T22:42:57.394Z,12.98
2022-09-11T22:45:23.914Z,15.75
2022-09-11T22:47:50.445Z,13.73
2022-09-11T22:50:17.418Z,16.70
2022-09-11T22:52:44.267Z,14.80
2022-09-11T22:55:11.635Z,8.90
2022-09-11T22:57:38.794Z,10.75
2022-09-11T23:00:08.333Z,9.98
2022-09-11T23:02:36.065Z,10.75
2022-09-11T23:05:22.971Z,10.25
2022-09-11T23:07:50.849Z,12.98
2022-09-11T23:10:19.818Z,13.43
2022-09-11T23:12:46.527Z,9.05
2022-09-11T23:15:13.024Z,12.05
2022-09-11T23:17:39.516Z,10.85
2022-09-11T23:20:06.519Z,7.25
2022-09-11T23:22:33.037Z,16.70
2022-09-11T23:24:59.613Z,15.00
2022-09-11T23:27:26.140Z,12.50
2022-09-11T23:29:52.643Z,10.15
2022-09-11T23:32:19.214Z,10.02
2022-09-11T23:34:45.940Z,18.33
2022-09-11T23:37:12.458Z,16.42
2022-09-11T23:39:39.026Z,12.43
2022-09-11T23:42:05.746Z,12.55
2022-09-11T23:44:32.290Z,16.63
2022-09-11T23:47:00.575Z,16.30
2022-09-11T23:49:27.141Z,18.58
2022-09-11T23:51:53.706Z,17.98
2022-09-11T23:54:20.386Z,17.35
2022-09-11T23:56:46.987Z,14.98
2022-09-11T23:59:13.533Z,19.70
